Latest Weather Observations for Meekatharra

IDW60801

Issued at 2:53 am WST Wednesday 13 November 2019 (issued every 10 minutes, with the page automatically refreshed every 10 minutes)

About weather observations | Map of weather stations | Latest weather observations for WA | Other Formats
Station Details ID: 007045 Name: MEEKATHARRA AIRPORT Lat: -26.61 Lon: 118.54 Height: 517.0 m
Data from the previous 72 hours. | See also: Recent months at Meekatharra
Date/Time
WST
Temp
°C
App
Temp
°C
Dew
Point
°C
Rel
Hum
%
Delta-T
°C
Wind Press
QNH
hPa
Press
MSL
hPa
Rain since
9am
mm
Dir  Spd
km/h
Gust
km/h
Spd
kts
Gust
kts
13/02:30am 23.5 16.8 1.2 23 10.7 ESE 26 39 14 21 1018.8 1015.6 0.0
13/02:00am 24.0 17.6 1.0 22 11.0 ESE 24 32 13 17 1018.8 1015.6 0.0
13/01:30am 24.5 18.1 0.8 21 11.3 ESE 24 33 13 18 1018.9 1015.7 0.0
13/01:00am 24.9 18.4 0.4 20 11.6 E 24 35 13 19 1019.0 1015.8 0.0
13/12:30am 25.2 18.7 0.0 19 11.9 E 24 32 13 17 1019.5 1016.3 0.0
13/12:00am 25.5 19.4 0.2 19 12.0 E 22 30 12 16 1019.5 1016.3 0.0
 
Date/Time
WST
Temp
°C
App
Temp
°C
Dew
Point
°C
Rel
Hum
%
Delta-T
°C
Wind Press
QNH
hPa
Press
MSL
hPa
Rain since
9am
mm
Dir  Spd
km/h
Gust
km/h
Spd
kts
Gust
kts
12/11:30pm 25.7 19.2 0.4 19 12.1 E 24 33 13 18 1019.4 1016.2 0.0
12/11:00pm 26.3 19.4 0.1 18 12.5 E 26 35 14 19 1019.8 1016.6 0.0
12/10:30pm 26.3 18.4 0.9 19 12.3 ESE 32 43 17 23 1019.5 1016.3 0.0
12/10:06pm 26.9 19.9 2.1 20 12.3 ESE 28 46 15 25 1020.3 1017.2 0.0
12/10:00pm 26.6 20.2 1.1 19 12.4 E 24 35 13 19 1021.3 1018.1 0.0
12/09:30pm 26.8 19.6 0.5 18 12.7 E 28 39 15 21 1020.9 1017.7 0.0
12/09:00pm 27.0 19.4 0.7 18 12.7 ESE 30 41 16 22 1020.6 1017.4 0.0
12/08:30pm 27.3 20.0 0.1 17 13.1 ESE 28 41 15 22 1020.0 1016.9 0.0
12/08:00pm 27.6 19.8 -0.5 16 13.4 ESE 30 43 16 23 1019.5 1016.3 0.0
12/07:30pm 27.9 20.2 -0.2 16 13.5 ESE 30 44 16 24 1019.6 1016.4 0.0
12/07:00pm 28.3 21.6 -0.8 15 13.9 ESE 24 35 13 19 1019.2 1016.0 0.0
12/06:30pm 28.7 21.3 -0.5 15 14.0 ESE 28 41 15 22 1019.0 1015.8 0.0
12/06:00pm 29.6 21.3 -1.7 13 14.8 ESE 32 41 17 22 1017.8 1014.6 0.0
12/05:30pm 29.9 21.5 -2.6 12 15.2 SE 32 44 17 24 1017.5 1014.3 0.0
12/05:23pm 30.3 22.7 -2.2 12 15.3 SE 28 46 15 25 1017.2 1014.0 0.0
12/05:00pm 30.6 22.6 -2.0 12 15.5 SE 30 43 16 23 1017.2 1014.0 0.0
12/04:30pm 32.0 23.5 -3.4 10 16.6 ESE 32 46 17 25 1016.8 1013.6 0.0
12/04:00pm 32.2 24.5 -3.2 10 16.6 ESE 28 43 15 23 1016.9 1013.7 0.0
12/03:30pm 31.3 25.2 -2.6 11 16.0 E 20 33 11 18 1016.7 1013.5 0.0
12/03:00pm 31.8 25.9 -2.3 11 16.2 ENE 19 32 10 17 1016.7 1013.5 0.0
12/02:34pm 30.6 23.6 1.9 16 14.6 ESE 28 56 15 30 1017.1 1013.9 0.0
12/02:30pm 31.6 25.0 -3.7 10 16.4 ESE 22 35 12 19 1017.2 1014.0 0.0
12/02:20pm 31.4 23.4 -2.6 11 16.1 SE 30 48 16 26 1017.0 1013.8 0.0
12/02:00pm 32.2 23.1 -3.2 10 16.6 SE 35 48 19 26 1016.2 1013.0 0.0
12/01:30pm 32.0 22.9 -3.4 10 16.6 SE 35 54 19 29 1016.6 1013.4 0.0
12/01:29pm 32.3 23.2 -3.2 10 16.7 SE 35 54 19 29 1016.6 1013.4 0.0
12/01:00pm 30.2 20.9 -2.3 12 15.3 SE 37 46 20 25 1017.8 1014.6 0.0
12/12:30pm 31.2 22.7 -1.5 12 15.7 SE 33 46 18 25 1017.4 1014.2 0.0
12/12:26pm 30.4 22.2 -1.1 13 15.2 SE 32 46 17 25 1017.6 1014.4 0.0
12/12:00pm 30.6 20.9 -2.0 12 15.5 ESE 39 57 21 31 1017.3 1014.1 0.0
12/11:56am 31.2 21.9 0.6 14 15.2 ESE 39 57 21 31 1017.1 1013.9 0.0
12/11:30am 30.9 21.3 -1.8 12 15.6 ESE 39 56 21 30 1017.4 1014.2 0.0
12/11:00am 30.9 23.1 -0.7 13 15.4 ESE 30 44 16 24 1018.0 1014.8 0.0
12/10:30am 28.3 20.6 0.1 16 13.7 ESE 30 44 16 24 1017.8 1014.6 0.0
12/10:00am 29.3 21.2 0.0 15 14.3 ESE 32 43 17 23 1017.5 1014.3 0.0
12/09:37am 28.9 20.9 0.6 16 13.9 E 32 50 17 27 1017.6 1014.4 0.0
12/09:30am 29.0 20.3 -0.2 15 14.1 ESE 35 50 19 27 1017.0 1013.8 0.0
12/09:17am 30.3 20.9 -0.1 14 14.9 ESE 39 57 21 31 1016.7 1013.5 0.0
12/09:00am 29.9 22.1 1.4 16 14.3 ESE 32 48 17 26 1016.7 1013.5 0.0
12/08:51am 28.8 20.7 1.3 17 13.7 E 33 52 18 28 1016.9 1013.7 0.0
12/08:30am 29.2 19.9 0.8 16 14.0 E 39 54 21 29 1017.1 1013.9 0.0
12/08:00am 28.4 19.9 1.0 17 13.5 E 35 54 19 29 1016.8 1013.6 0.0
12/07:54am 28.6 20.1 1.2 17 13.6 E 35 54 19 29 1016.8 1013.6 0.0
12/07:30am 27.6 18.8 1.2 18 13.0 E 37 54 20 29 1016.6 1013.4 0.0
12/07:06am 27.0 19.0 0.7 18 12.8 ESE 32 50 17 27 1016.8 1013.6 0.0
12/07:00am 27.1 18.6 0.8 18 12.8 E 35 50 19 27 1016.6 1013.4 0.0
12/06:30am 26.4 18.5 0.9 19 12.4 ESE 32 46 17 25 1016.3 1013.1 0.0
12/06:00am 26.7 19.1 0.4 18 12.7 ESE 30 44 16 24 1016.2 1013.0 0.0
12/05:30am 26.4 18.4 0.2 18 12.5 ESE 32 46 17 25 1015.5 1012.3 0.0
12/05:00am 26.9 18.9 0.6 18 12.7 ESE 32 44 17 24 1014.9 1011.7 0.0
12/04:30am 27.1 19.4 0.0 17 13.0 ESE 30 44 16 24 1014.6 1011.3 0.0
12/04:00am 27.7 18.6 -0.4 16 13.4 ESE 37 48 20 26 1014.3 1011.1 0.0
12/03:30am 28.0 22.4 -0.1 16 13.5 SE 19 33 10 18 1015.5 1012.3 0.0
12/03:00am 28.1 22.3 -0.1 16 13.6 SE 20 30 11 16 1014.9 1011.7 0.0
12/02:30am 28.1 22.5 -0.1 16 13.6 SSE 19 28 10 15 1015.0 1011.8 0.0
12/02:00am 28.3 21.8 0.1 16 13.7 SSE 24 33 13 18 1014.5 1011.2 0.0
12/01:30am 28.3 21.5 0.9 17 13.5 S 26 35 14 19 1014.1 1010.9 0.0
12/01:00am 28.6 22.2 1.2 17 13.6 SSE 24 37 13 20 1013.9 1010.7 0.0
12/12:30am 29.0 21.8 0.7 16 13.9 SSE 28 41 15 22 1013.6 1010.4 0.0
12/12:00am 29.2 23.0 -0.1 15 14.2 S 22 33 12 18 1013.8 1010.6 0.0
 
Date/Time
WST
Temp
°C
App
Temp
°C
Dew
Point
°C
Rel
Hum
%
Delta-T
°C
Wind Press
QNH
hPa
Press
MSL
hPa
Rain since
9am
mm
Dir  Spd
km/h
Gust
km/h
Spd
kts
Gust
kts
11/11:30pm 29.8 21.8 0.4 15 14.5 SE 32 54 17 29 1014.0 1010.8 0.0
11/11:28pm 29.8 22.6 0.4 15 14.5 SE 28 46 15 25 1013.8 1010.6 0.0
11/11:00pm 30.3 22.1 -1.2 13 15.1 SE 32 46 17 25 1013.8 1010.6 0.0
11/10:53pm 30.5 23.1 -1.0 13 15.2 SE 28 46 15 25 1013.9 1010.7 0.0
11/10:30pm 30.6 24.2 -2.0 12 15.5 SSE 22 30 12 16 1013.9 1010.7 0.0
11/10:00pm 30.5 24.8 -1.0 13 15.2 SSW 19 26 10 14 1013.4 1010.2 0.0
11/09:30pm 31.4 23.1 -1.4 12 15.8 S 32 41 17 22 1013.1 1009.9 0.0
11/09:00pm 32.4 26.2 -4.5 9 17.0 S 19 28 10 15 1013.2 1010.0 0.0
11/08:30pm 33.2 27.9 -3.9 9 17.4 SE 15 24 8 13 1012.9 1009.6 0.0
11/08:00pm 33.0 24.8 -4.0 9 17.3 SSW 30 50 16 27 1012.5 1009.2 0.0
11/07:54pm 33.0 24.8 -4.0 9 17.3 SSW 30 50 16 27 1012.0 1008.8 0.0
11/07:30pm 33.7 28.6 -5.1 8 17.9 SSE 13 17 7 9 1012.0 1008.8 0.0
11/07:00pm 33.9 28.8 -4.9 8 18.0 SE 13 19 7 10 1011.5 1008.3 0.0
11/06:30pm 34.6 29.0 -6.2 7 18.6 S 15 20 8 11 1011.3 1008.1 0.0
11/06:00pm 34.9 30.5 -6.0 7 18.8 ESE 9 13 5 7 1011.0 1007.7 0.0
11/05:30pm 35.5 30.9 -7.5 6 19.3 SSW 9 13 5 7 1010.9 1007.6 0.0
11/05:00pm 35.7 30.8 -7.4 6 19.5 S 11 19 6 10 1010.8 1007.5 0.0
11/04:30pm 35.6 31.4 -7.5 6 19.4 S 7 11 4 6 1010.7 1007.4 0.0
11/04:00pm 36.4 31.5 -6.9 6 19.8 SSE 11 24 6 13 1010.8 1007.5 0.0
11/03:30pm 36.2 32.3 -5.0 7 19.4 WSW 7 13 4 7 1011.0 1007.7 0.0
11/03:00pm 36.0 32.6 -5.2 7 19.3 WSW 4 11 2 6 1011.2 1007.9 0.0
11/02:30pm 35.9 31.9 -5.2 7 19.2 SE 7 13 4 7 1011.5 1008.3 0.0
11/02:00pm 36.5 31.8 -4.8 7 19.5 ESE 11 19 6 10 1011.6 1008.4 0.0
11/01:30pm 36.1 31.4 -5.1 7 19.3 ESE 11 24 6 13 1012.0 1008.8 0.0
11/01:00pm 37.2 31.8 -4.3 7 19.9 SE 15 28 8 15 1012.5 1009.2 0.0
11/12:30pm 35.3 31.3 -5.7 7 18.9 SE 7 15 4 8 1012.7 1009.4 0.0
11/12:00pm 36.2 31.3 -3.3 8 19.1 E 13 22 7 12 1013.0 1009.7 0.0
11/11:30am 35.2 31.0 -4.0 8 18.6 SW 9 20 5 11 1013.3 1010.1 0.0
11/11:00am 34.2 29.5 -4.7 8 18.1 SSE 11 19 6 10 1013.7 1010.5 0.0
11/10:30am 34.0 29.5 -3.3 9 17.8 E 11 19 6 10 1013.9 1010.7 0.0
11/10:00am 33.1 27.5 -2.6 10 17.1 ESE 17 26 9 14 1013.9 1010.7 0.0
11/09:30am 32.5 26.5 -3.0 10 16.8 ESE 19 30 10 16 1014.0 1010.8 0.0
11/09:00am 31.4 25.4 -1.4 12 15.8 ESE 20 28 11 15 1014.2 1011.0 0.0
11/08:30am 30.4 24.1 -1.1 13 15.2 ESE 22 32 12 17 1014.3 1011.1 0.0
11/08:00am 29.1 22.5 -0.1 15 14.2 SE 24 33 13 18 1014.2 1011.0 0.0
11/07:30am 27.5 20.8 -1.4 15 13.6 ESE 24 33 13 18 1014.1 1010.9 0.0
11/07:00am 27.2 22.0 -2.6 14 13.7 SE 15 20 8 11 1013.9 1010.7 0.0
11/06:30am 24.3 20.1 -4.0 15 12.3 S 9 13 5 7 1013.8 1010.6 0.0
11/06:00am 22.4 18.1 -4.6 16 11.4 SSW 9 11 5 6 1013.3 1010.1 0.0
11/05:30am 21.9 18.0 -5.0 16 11.3 S 7 9 4 5 1012.9 1009.6 0.0
11/05:00am 22.0 17.7 -4.9 16 11.3 SSE 9 11 5 6 1012.5 1009.2 0.0
11/04:30am 23.0 18.7 -5.0 15 11.8 S 9 11 5 6 1012.2 1009.0 0.0
11/04:00am 23.7 19.4 -4.4 15 12.1 SE 9 13 5 7 1011.9 1008.7 0.0
11/03:30am 22.8 19.0 -5.2 15 11.8 SSE 6 9 3 5 1011.9 1008.7 0.0
11/03:00am 23.6 18.9 -5.4 14 12.3 S 11 13 6 7 1011.7 1008.5 0.0
11/02:30am 23.8 19.0 -6.2 13 12.5 S 11 13 6 7 1011.5 1008.3 0.0
11/02:00am 24.5 19.7 -5.7 13 12.8 SSW 11 13 6 7 1011.5 1008.3 0.0
11/01:30am 23.4 18.9 -6.5 13 12.3 SSE 9 11 5 6 1011.4 1008.2 0.0
11/01:00am 25.0 20.6 -6.3 12 13.2 SSW 9 13 5 7 1011.6 1008.4 0.0
11/12:30am 25.6 21.1 -7.0 11 13.6 SSW 9 11 5 6 1011.9 1008.7 0.0
11/12:00am 25.6 20.7 -7.0 11 13.6 SSW 11 13 6 7 1012.2 1009.0 0.0
 
Date/Time
WST
Temp
°C
App
Temp
°C
Dew
Point
°C
Rel
Hum
%
Delta-T
°C
Wind Press
QNH
hPa
Press
MSL
hPa
Rain since
9am
mm
Dir  Spd
km/h
Gust
km/h
Spd
kts
Gust
kts
10/11:30pm 26.9 21.6 -7.2 10 14.3 SSW 13 15 7 8 1012.6 1009.3 0.0
10/11:00pm 27.4 22.1 -6.9 10 14.6 SSW 13 15 7 8 1012.7 1009.4 0.0
10/10:30pm 28.2 23.3 -7.6 9 15.1 SSW 11 13 6 7 1013.2 1010.0 0.0
10/10:00pm 29.3 23.7 -6.8 9 15.6 SSW 15 22 8 12 1013.3 1010.1 0.0
10/09:30pm 29.9 23.9 -6.4 9 15.9 SSW 17 20 9 11 1013.5 1010.3 0.0
10/09:00pm 30.5 24.0 -5.9 9 16.2 SW 20 28 11 15 1013.4 1010.2 0.0
10/08:30pm 30.9 24.4 -5.6 9 16.3 SW 20 28 11 15 1013.2 1010.0 0.0
10/08:00pm 31.5 25.1 -6.7 8 16.9 SW 19 26 10 14 1013.0 1009.7 0.0
10/07:30pm 32.1 26.9 -6.3 8 17.1 SW 13 17 7 9 1012.9 1009.6 0.0
10/07:00pm 33.1 27.4 -7.3 7 17.9 W 15 24 8 13 1012.7 1009.4 0.0
10/06:30pm 33.8 27.8 -6.8 7 18.2 W 17 22 9 12 1012.1 1008.9 0.0
10/06:00pm 34.9 28.2 -8.0 6 19.1 WNW 20 30 11 16 1011.7 1008.5 0.0
10/05:30pm 35.6 28.6 -7.5 6 19.4 W 22 35 12 19 1011.5 1008.3 0.0
10/05:00pm 36.2 29.6 -7.0 6 19.7 W 20 44 11 24 1011.1 1007.8 0.0
10/04:30pm 36.8 29.5 -6.6 6 20.0 WSW 24 37 13 20 1011.0 1007.7 0.0
10/04:00pm 36.9 29.6 -6.5 6 20.1 W 24 41 13 22 1011.0 1007.7 0.0
10/03:30pm 36.9 28.4 -6.5 6 20.0 W 30 43 16 23 1011.3 1008.1 0.0
10/03:00pm 37.6 30.7 -6.0 6 20.4 W 22 43 12 23 1011.5 1008.3 0.0
10/02:30pm 37.2 30.3 -6.3 6 20.2 W 22 35 12 19 1011.8 1008.6 0.0
10/02:00pm 37.3 29.6 -6.3 6 20.3 NW 26 39 14 21 1012.0 1008.8 0.0
10/01:30pm 36.8 31.0 -4.6 7 19.7 W 17 33 9 18 1012.6 1009.3 0.0
10/01:00pm 37.5 31.2 -4.1 7 20.0 WSW 20 35 11 19 1012.8 1009.5 0.0
10/12:30pm 36.5 30.9 -3.0 8 19.2 W 17 28 9 15 1013.0 1009.7 0.0
10/12:00pm 36.4 30.6 -4.9 7 19.5 SW 17 26 9 14 1013.3 1010.1 0.0
10/11:30am 35.5 29.6 -5.5 7 19.0 WSW 17 32 9 17 1013.8 1010.6 0.0
10/11:00am 34.8 29.2 -6.0 7 18.7 WSW 15 30 8 16 1014.1 1010.9 0.0
10/10:30am 35.6 29.7 -5.5 7 19.1 WSW 17 35 9 19 1014.6 1011.3 0.0
10/10:00am 34.6 28.4 -4.4 8 18.3 SW 19 32 10 17 1015.0 1011.8 0.0
10/09:30am 33.3 26.9 -5.4 8 17.7 WSW 20 30 11 16 1015.3 1012.1 0.0
10/09:00am 33.2 27.5 -3.9 9 17.4 SW 17 26 9 14 1015.3 1012.1 0.0
10/08:30am 31.2 25.6 -2.7 11 16.0 SW 17 24 9 13 1015.4 1012.2 0.0
10/08:00am 30.7 24.9 -4.4 10 16.0 SW 17 24 9 13 1015.3 1012.1 0.0
10/07:30am 29.8 24.0 -1.5 13 14.9 SW 19 26 10 14 1015.1 1011.9 0.0
10/07:00am 28.8 23.1 -0.4 15 14.1 SSW 19 24 10 13 1014.9 1011.7 0.0
10/06:30am 27.4 23.4 0.2 17 13.1 SSW 11 15 6 8 1014.9 1011.7 0.0
10/06:00am 25.1 21.9 0.6 20 11.7 SW 7 9 4 5 1014.7 1011.4 0.0
10/05:30am 24.2 21.0 0.5 21 11.2 W 7 9 4 5 1014.7 1011.4 0.0
10/05:00am 24.5 20.5 0.8 21 11.3 WSW 11 13 6 7 1014.5 1011.2 0.0
10/04:30am 25.0 21.8 0.5 20 11.7 WSW 7 9 4 5 1014.2 1011.0 0.0
10/04:00am 25.3 20.8 0.0 19 12.0 WSW 13 15 7 8 1014.0 1010.8 0.0
10/03:30am 25.5 21.8 0.2 19 12.0 W 9 11 5 6 1013.7 1010.5 0.0
10/03:00am 24.9 22.9 -0.3 19 11.8 CALM 0 0 0 0 1013.7 1010.5 0.0

Other formats

Comma delimited format used in spreadsheet applications
http://www.bom.gov.au/fwo/IDW60801/IDW60801.94430.axf

JavaScript Object Notation format (JSON) in row-major order
http://www.bom.gov.au/fwo/IDW60801/IDW60801.94430.json

Data quality

Most of these data are generated automatically and are frequently updated. Quality checks on data are not normally performed. It is possible for incorrect values to appear. Refer to information at About Latest Weather Observations and please check the disclaimer before using these data.